sensor_id;sensor_type;location;lat;lon;timestamp;pressure;altitude;pressure_sealevel;temperature;humidity
20156;BME280;10238;49.556;10.956;2024-03-25T00:01:31;97370.97;;;4.99;100.00
20156;BME280;10238;49.556;10.956;2024-03-25T00:04:18;97376.25;;;4.99;100.00
20156;BME280;10238;49.556;10.956;2024-03-25T00:07:06;97374.59;;;4.98;100.00
20156;BME280;10238;49.556;10.956;2024-03-25T00:09:53;97374.59;;;4.98;100.00
20156;BME280;10238;49.556;10.956;2024-03-25T00:12:40;97377.91;;;5.00;100.00
20156;BME280;10238;49.556;10.956;2024-03-25T00:15:27;97373.31;;;5.02;100.00
20156;BME280;10238;49.556;10.956;2024-03-25T00:18:12;97367.91;;;5.04;100.00
20156;BME280;10238;49.556;10.956;2024-03-25T00:20:59;97377.59;;;5.03;100.00
20156;BME280;10238;49.556;10.956;2024-03-25T00:23:44;97385.38;;;5.05;100.00
20156;BME280;10238;49.556;10.956;2024-03-25T00:26:32;97379.97;;;5.06;100.00
20156;BME280;10238;49.556;10.956;2024-03-25T00:29:18;97379.00;;;5.07;100.00
20156;BME280;10238;49.556;10.956;2024-03-25T00:32:05;97367.47;;;5.08;100.00
20156;BME280;10238;49.556;10.956;2024-03-25T00:34:51;97375.38;;;5.08;100.00
20156;BME280;10238;49.556;10.956;2024-03-25T00:37:38;97381.63;;;5.07;100.00
20156;BME280;10238;49.556;10.956;2024-03-25T00:40:24;97370.13;;;5.08;100.00
20156;BME280;10238;49.556;10.956;2024-03-25T00:43:12;97375.38;;;5.08;100.00
20156;BME280;10238;49.556;10.956;2024-03-25T00:45:58;97376.09;;;5.10;100.00
20156;BME280;10238;49.556;10.956;2024-03-25T00:48:44;97363.72;;;5.11;100.00
20156;BME280;10238;49.556;10.956;2024-03-25T00:51:30;97375.94;;;5.12;100.00
20156;BME280;10238;49.556;10.956;2024-03-25T00:54:16;97369.69;;;5.13;100.00
20156;BME280;10238;49.556;10.956;2024-03-25T00:57:04;97372.47;;;5.11;100.00
20156;BME280;10238;49.556;10.956;2024-03-25T00:59:50;97377.03;;;5.09;100.00
20156;BME280;10238;49.556;10.956;2024-03-25T01:02:37;97376.22;;;5.09;100.00
20156;BME280;10238;49.556;10.956;2024-03-25T01:05:23;97376.22;;;5.09;100.00
20156;BME280;10238;49.556;10.956;2024-03-25T01:08:09;97364.84;;;5.08;100.00
20156;BME280;10238;49.556;10.956;2024-03-25T01:10:57;97375.38;;;5.08;100.00
20156;BME280;10238;49.556;10.956;2024-03-25T01:13:43;97373.59;;;5.09;100.00
20156;BME280;10238;49.556;10.956;2024-03-25T01:16:32;97374.41;;;5.09;100.00
20156;BME280;10238;49.556;10.956;2024-03-25T01:19:18;97370.25;;;5.07;100.00
20156;BME280;10238;49.556;10.956;2024-03-25T01:22:06;97365.00;;;5.07;100.00
20156;BME280;10238;49.556;10.956;2024-03-25T01:24:51;97375.38;;;5.08;100.00
20156;BME280;10238;49.556;10.956;2024-03-25T01:27:38;97378.84;;;5.09;100.00
20156;BME280;10238;49.556;10.956;2024-03-25T01:30:24;97374.25;;;5.11;100.00
20156;BME280;10238;49.556;10.956;2024-03-25T01:33:12;97373.59;;;5.09;100.00
20156;BME280;10238;49.556;10.956;2024-03-25T01:35:57;97371.78;;;5.09;100.00
20156;BME280;10238;49.556;10.956;2024-03-25T01:38:44;97369.13;;;5.09;100.00
20156;BME280;10238;49.556;10.956;2024-03-25T01:41:30;97361.22;;;5.09;100.00
20156;BME280;10238;49.556;10.956;2024-03-25T01:44:16;97366.50;;;5.09;100.00
20156;BME280;10238;49.556;10.956;2024-03-25T01:47:03;97378.03;;;5.08;100.00
20156;BME280;10238;49.556;10.956;2024-03-25T01:49:51;97367.34;;;5.10;100.00
20156;BME280;10238;49.556;10.956;2024-03-25T01:52:40;97371.09;;;5.07;100.00
20156;BME280;10238;49.556;10.956;2024-03-25T01:55:29;97373.75;;;5.07;100.00
20156;BME280;10238;49.556;10.956;2024-03-25T01:58:17;97378.16;;;5.07;100.00
20156;BME280;10238;49.556;10.956;2024-03-25T02:01:02;97369.56;;;5.05;100.00
20156;BME280;10238;49.556;10.956;2024-03-25T02:03:49;97379.00;;;5.07;100.00
20156;BME280;10238;49.556;10.956;2024-03-25T02:06:40;97374.03;;;5.04;100.00
20156;BME280;10238;49.556;10.956;2024-03-25T02:09:28;97374.97;;;5.03;100.00
20156;BME280;10238;49.556;10.956;2024-03-25T02:12:14;97366.41;;;5.01;100.00
20156;BME280;10238;49.556;10.956;2024-03-25T02:15:02;97373.31;;;5.02;100.00
20156;BME280;10238;49.556;10.956;2024-03-25T02:17:49;97377.22;;;4.98;100.00
20156;BME280;10238;49.556;10.956;2024-03-25T02:20:35;97372.91;;;4.97;100.00
20156;BME280;10238;49.556;10.956;2024-03-25T02:23:23;97373.91;;;4.96;100.00
20156;BME280;10238;49.556;10.956;2024-03-25T02:26:11;97368.78;;;4.95;100.00
20156;BME280;10238;49.556;10.956;2024-03-25T02:28:57;97365.34;;;4.94;100.00
20156;BME280;10238;49.556;10.956;2024-03-25T02:31:43;97376.53;;;4.96;100.00
20156;BME280;10238;49.556;10.956;2024-03-25T02:34:29;97377.22;;;4.98;100.00
20156;BME280;10238;49.556;10.956;2024-03-25T02:37:15;97375.41;;;4.99;100.00
20156;BME280;10238;49.556;10.956;2024-03-25T02:40:03;97373.47;;;5.01;100.00
20156;BME280;10238;49.556;10.956;2024-03-25T02:42:52;97377.91;;;5.00;100.00
20156;BME280;10238;49.556;10.956;2024-03-25T02:45:39;97374.59;;;4.98;100.00
20156;BME280;10238;49.556;10.956;2024-03-25T02:48:25;97390.41;;;4.98;100.00
20156;BME280;10238;49.556;10.956;2024-03-25T02:51:11;97391.34;;;4.97;100.00
20156;BME280;10238;49.556;10.956;2024-03-25T02:53:57;97394.81;;;4.98;100.00
20156;BME280;10238;49.556;10.956;2024-03-25T02:56:44;97397.59;;;4.96;100.00
20156;BME280;10238;49.556;10.956;2024-03-25T02:59:31;97399.25;;;4.97;100.00
20156;BME280;10238;49.556;10.956;2024-03-25T03:02:18;97398.44;;;4.97;100.00
20156;BME280;10238;49.556;10.956;2024-03-25T03:05:05;97401.88;;;4.97;100.00
20156;BME280;10238;49.556;10.956;2024-03-25T03:07:51;97401.88;;;4.97;100.00
20156;BME280;10238;49.556;10.956;2024-03-25T03:10:37;97405.50;;;4.96;100.00
20156;BME280;10238;49.556;10.956;2024-03-25T03:13:23;97412.56;;;4.96;100.00
20156;BME280;10238;49.556;10.956;2024-03-25T03:16:10;97404.50;;;4.97;100.00
20156;BME280;10238;49.556;10.956;2024-03-25T03:18:58;97404.50;;;4.97;100.00
20156;BME280;10238;49.556;10.956;2024-03-25T03:21:44;97402.88;;;4.96;100.00
20156;BME280;10238;49.556;10.956;2024-03-25T03:24:30;97417.00;;;4.95;100.00
20156;BME280;10238;49.556;10.956;2024-03-25T03:27:16;97405.63;;;4.95;100.00
20156;BME280;10238;49.556;10.956;2024-03-25T03:30:03;97414.38;;;4.95;100.00
20156;BME280;10238;49.556;10.956;2024-03-25T03:32:50;97415.38;;;4.94;100.00
20156;BME280;10238;49.556;10.956;2024-03-25T03:35:37;97416.59;;;4.90;100.00
20156;BME280;10238;49.556;10.956;2024-03-25T03:38:22;97413.28;;;4.88;100.00
20156;BME280;10238;49.556;10.956;2024-03-25T03:41:09;97418.56;;;4.88;100.00
20156;BME280;10238;49.556;10.956;2024-03-25T03:43:55;97420.50;;;4.86;100.00
20156;BME280;10238;49.556;10.956;2024-03-25T03:46:42;97428.38;;;4.86;100.00
20156;BME280;10238;49.556;10.956;2024-03-25T03:49:29;97430.31;;;4.84;100.00
20156;BME280;10238;49.556;10.956;2024-03-25T03:52:15;97432.56;;;4.79;100.00
20156;BME280;10238;49.556;10.956;2024-03-25T03:55:01;97433.84;;;4.75;100.00
20156;BME280;10238;49.556;10.956;2024-03-25T03:57:47;97429.81;;;4.71;100.00
20156;BME280;10238;49.556;10.956;2024-03-25T04:00:36;97446.84;;;4.67;100.00
20156;BME280;10238;49.556;10.956;2024-03-25T04:03:23;97433.13;;;4.64;100.00
20156;BME280;10238;49.556;10.956;2024-03-25T04:06:12;97440.34;;;4.62;100.00
20156;BME280;10238;49.556;10.956;2024-03-25T04:08:59;97447.69;;;4.58;100.00
20156;BME280;10238;49.556;10.956;2024-03-25T04:11:45;97444.78;;;4.61;100.00
20156;BME280;10238;49.556;10.956;2024-03-25T04:14:32;97445.91;;;4.59;100.00
20156;BME280;10238;49.556;10.956;2024-03-25T04:17:18;97441.75;;;4.56;100.00
20156;BME280;10238;49.556;10.956;2024-03-25T04:20:06;97447.28;;;4.53;100.00
20156;BME280;10238;49.556;10.956;2024-03-25T04:22:57;97443.13;;;4.50;100.00
20156;BME280;10238;49.556;10.956;2024-03-25T04:25:45;97447.44;;;4.52;100.00
20156;BME280;10238;49.556;10.956;2024-03-25T04:28:31;97454.63;;;4.49;100.00
20156;BME280;10238;49.556;10.956;2024-03-25T04:31:17;97452.00;;;4.49;100.00
20156;BME280;10238;49.556;10.956;2024-03-25T04:34:03;97447.56;;;4.50;100.00
20156;BME280;10238;49.556;10.956;2024-03-25T04:36:49;97453.50;;;4.52;100.00
20156;BME280;10238;49.556;10.956;2024-03-25T04:39:36;97456.41;;;4.49;100.00
20156;BME280;10238;49.556;10.956;2024-03-25T04:42:22;97458.22;;;4.48;100.00
20156;BME280;10238;49.556;10.956;2024-03-25T04:45:09;97459.03;;;4.49;100.00
20156;BME280;10238;49.556;10.956;2024-03-25T04:47:54;97456.41;;;4.49;100.00
20156;BME280;10238;49.556;10.956;2024-03-25T04:50:40;97453.09;;;4.47;100.00
20156;BME280;10238;49.556;10.956;2024-03-25T04:53:26;97468.06;;;4.46;100.00
20156;BME280;10238;49.556;10.956;2024-03-25T04:56:13;97465.56;;;4.45;100.00
20156;BME280;10238;49.556;10.956;2024-03-25T04:58:59;97473.31;;;4.46;100.00
20156;BME280;10238;49.556;10.956;2024-03-25T05:01:44;97483.84;;;4.46;100.00
20156;BME280;10238;49.556;10.956;2024-03-25T05:04:30;97489.25;;;4.45;100.00
20156;BME280;10238;49.556;10.956;2024-03-25T05:07:16;97489.94;;;4.47;100.00
20156;BME280;10238;49.556;10.956;2024-03-25T05:10:01;97489.09;;;4.46;100.00
20156;BME280;10238;49.556;10.956;2024-03-25T05:12:48;97493.38;;;4.47;100.00
20156;BME280;10238;49.556;10.956;2024-03-25T05:15:34;97497.84;;;4.47;100.00
20156;BME280;10238;49.556;10.956;2024-03-25T05:18:20;97497.13;;;4.45;100.00
20156;BME280;10238;49.556;10.956;2024-03-25T05:21:05;97493.78;;;4.43;100.00
20156;BME280;10238;49.556;10.956;2024-03-25T05:23:51;97495.63;;;4.42;100.00
20156;BME280;10238;49.556;10.956;2024-03-25T05:26:37;97502.66;;;4.42;100.00
20156;BME280;10238;49.556;10.956;2024-03-25T05:29:25;97504.31;;;4.43;100.00
20156;BME280;10238;49.556;10.956;2024-03-25T05:32:11;97501.69;;;4.43;100.00
20156;BME280;10238;49.556;10.956;2024-03-25T05:34:57;97499.38;;;4.40;100.00
20156;BME280;10238;49.556;10.956;2024-03-25T05:37:42;97495.75;;;4.41;100.00
20156;BME280;10238;49.556;10.956;2024-03-25T05:40:28;97498.25;;;4.42;100.00
20156;BME280;10238;49.556;10.956;2024-03-25T05:43:14;97505.03;;;4.45;100.00
20156;BME280;10238;49.556;10.956;2024-03-25T05:46:02;97508.50;;;4.45;100.00
20156;BME280;10238;49.556;10.956;2024-03-25T05:48:47;97508.50;;;4.45;100.00
20156;BME280;10238;49.556;10.956;2024-03-25T05:51:33;97511.00;;;4.47;100.00
20156;BME280;10238;49.556;10.956;2024-03-25T05:54:19;97511.66;;;4.49;100.00
20156;BME280;10238;49.556;10.956;2024-03-25T05:57:05;97511.53;;;4.50;100.00
20156;BME280;10238;49.556;10.956;2024-03-25T05:59:50;97512.09;;;4.54;100.00
20156;BME280;10238;49.556;10.956;2024-03-25T06:02:37;97507.41;;;4.58;100.00
20156;BME280;10238;49.556;10.956;2024-03-25T06:05:23;97515.16;;;4.59;100.00
20156;BME280;10238;49.556;10.956;2024-03-25T06:08:09;97515.69;;;4.63;100.00
20156;BME280;10238;49.556;10.956;2024-03-25T06:11:00;97515.56;;;4.64;100.00
20156;BME280;10238;49.556;10.956;2024-03-25T06:13:46;97511.00;;;4.66;100.00
20156;BME280;10238;49.556;10.956;2024-03-25T06:16:32;97513.22;;;4.71;100.00
20156;BME280;10238;49.556;10.956;2024-03-25T06:19:19;97511.13;;;4.74;100.00
20156;BME280;10238;49.556;10.956;2024-03-25T06:22:05;97508.22;;;4.77;100.00
20156;BME280;10238;49.556;10.956;2024-03-25T06:24:50;97507.94;;;4.80;100.00
20156;BME280;10238;49.556;10.956;2024-03-25T06:27:36;97509.56;;;4.81;100.00
20156;BME280;10238;49.556;10.956;2024-03-25T06:30:22;97501.53;;;4.83;100.00
20156;BME280;10238;49.556;10.956;2024-03-25T06:33:38;97503.09;;;4.85;100.00
20156;BME280;10238;49.556;10.956;2024-03-25T06:36:44;97512.78;;;4.85;100.00
20156;BME280;10238;49.556;10.956;2024-03-25T06:39:29;97525.94;;;4.85;100.00
20156;BME280;10238;49.556;10.956;2024-03-25T06:42:15;97525.81;;;4.86;100.00
20156;BME280;10238;49.556;10.956;2024-03-25T06:45:01;97528.88;;;4.91;100.00
20156;BME280;10238;49.556;10.956;2024-03-25T06:47:46;97527.59;;;4.95;100.00
20156;BME280;10238;49.556;10.956;2024-03-25T06:50:32;97531.59;;;4.99;100.00
20156;BME280;10238;49.556;10.956;2024-03-25T06:53:20;97529.25;;;5.06;100.00
20156;BME280;10238;49.556;10.956;2024-03-25T06:56:06;97534.78;;;5.12;100.00
20156;BME280;10238;49.556;10.956;2024-03-25T06:58:52;97530.88;;;5.16;100.00
20156;BME280;10238;49.556;10.956;2024-03-25T07:01:37;97530.59;;;5.19;100.00
20156;BME280;10238;49.556;10.956;2024-03-25T07:04:23;97536.16;;;5.26;100.00
20156;BME280;10238;49.556;10.956;2024-03-25T07:07:09;97535.59;;;5.32;100.00
20156;BME280;10238;49.556;10.956;2024-03-25T07:09:56;97533.34;;;5.37;100.00
20156;BME280;10238;49.556;10.956;2024-03-25T07:12:42;97533.75;;;5.42;100.00
20156;BME280;10238;49.556;10.956;2024-03-25T07:15:28;97536.47;;;5.50;100.00
20156;BME280;10238;49.556;10.956;2024-03-25T07:18:13;97529.53;;;5.58;100.00
20156;BME280;10238;49.556;10.956;2024-03-25T07:20:59;97543.94;;;5.64;100.00
20156;BME280;10238;49.556;10.956;2024-03-25T07:23:45;97545.16;;;5.69;100.00
20156;BME280;10238;49.556;10.956;2024-03-25T07:26:32;97545.72;;;5.73;100.00
20156;BME280;10238;49.556;10.956;2024-03-25T07:29:18;97546.25;;;5.76;100.00
20156;BME280;10238;49.556;10.956;2024-03-25T07:32:04;97543.47;;;5.78;100.00
20156;BME280;10238;49.556;10.956;2024-03-25T07:34:50;97545.16;;;5.79;100.00
20156;BME280;10238;49.556;10.956;2024-03-25T07:37:36;97543.91;;;5.83;100.00
20156;BME280;10238;49.556;10.956;2024-03-25T07:40:22;97544.84;;;5.91;100.00
20156;BME280;10238;49.556;10.956;2024-03-25T07:43:09;97543.13;;;6.00;100.00
20156;BME280;10238;49.556;10.956;2024-03-25T07:45:55;97551.00;;;6.09;100.00
20156;BME280;10238;49.556;10.956;2024-03-25T07:48:41;97548.88;;;6.13;100.00
20156;BME280;10238;49.556;10.956;2024-03-25T07:51:27;97547.38;;;6.10;100.00
20156;BME280;10238;49.556;10.956;2024-03-25T07:54:13;97548.38;;;6.09;100.00
20156;BME280;10238;49.556;10.956;2024-03-25T07:56:59;97553.06;;;6.15;100.00
20156;BME280;10238;49.556;10.956;2024-03-25T07:59:46;97552.09;;;6.16;100.00
20156;BME280;10238;49.556;10.956;2024-03-25T08:02:32;97557.72;;;6.21;100.00
20156;BME280;10238;49.556;10.956;2024-03-25T08:05:17;97558.13;;;6.26;100.00
20156;BME280;10238;49.556;10.956;2024-03-25T08:08:04;97552.41;;;6.31;100.00
20156;BME280;10238;49.556;10.956;2024-03-25T08:10:50;97562.81;;;6.32;100.00
20156;BME280;10238;49.556;10.956;2024-03-25T08:13:36;97552.41;;;6.31;100.00
20156;BME280;10238;49.556;10.956;2024-03-25T08:16:23;97555.19;;;6.29;100.00
20156;BME280;10238;49.556;10.956;2024-03-25T08:19:08;97544.34;;;6.32;100.00
20156;BME280;10238;49.556;10.956;2024-03-25T08:21:54;97550.00;;;6.37;100.00
20156;BME280;10238;49.556;10.956;2024-03-25T08:24:40;97558.84;;;6.46;100.00
20156;BME280;10238;49.556;10.956;2024-03-25T08:27:26;97556.44;;;6.52;100.00
20156;BME280;10238;49.556;10.956;2024-03-25T08:30:13;97561.41;;;6.55;100.00
20156;BME280;10238;49.556;10.956;2024-03-25T08:33:00;97550.84;;;6.55;100.00
20156;BME280;10238;49.556;10.956;2024-03-25T08:35:45;97548.91;;;6.57;100.00
20156;BME280;10238;49.556;10.956;2024-03-25T08:38:31;97553.59;;;6.63;100.00
20156;BME280;10238;49.556;10.956;2024-03-25T08:41:17;97557.66;;;6.76;100.00
20156;BME280;10238;49.556;10.956;2024-03-25T08:44:03;97549.53;;;6.87;100.00
20156;BME280;10238;49.556;10.956;2024-03-25T08:46:49;97551.00;;;7.07;100.00
20156;BME280;10238;49.556;10.956;2024-03-25T08:49:36;97549.50;;;7.22;100.00
20156;BME280;10238;49.556;10.956;2024-03-25T08:52:21;97538.81;;;7.57;100.00
20156;BME280;10238;49.556;10.956;2024-03-25T08:55:07;97529.38;;;7.80;100.00
20156;BME280;10238;49.556;10.956;2024-03-25T08:57:53;97534.50;;;7.81;100.00
20156;BME280;10238;49.556;10.956;2024-03-25T09:00:38;97536.16;;;7.82;100.00
20156;BME280;10238;49.556;10.956;2024-03-25T09:03:24;97535.69;;;7.87;100.00
20156;BME280;10238;49.556;10.956;2024-03-25T09:06:12;97536.22;;;7.90;100.00
20156;BME280;10238;49.556;10.956;2024-03-25T09:08:58;97541.19;;;7.93;100.00
20156;BME280;10238;49.556;10.956;2024-03-25T09:12:02;97531.44;;;7.94;100.00
20156;BME280;10238;49.556;10.956;2024-03-25T09:14:48;97535.59;;;8.04;100.00
20156;BME280;10238;49.556;10.956;2024-03-25T09:17:34;97539.03;;;8.22;100.00
20156;BME280;10238;49.556;10.956;2024-03-25T09:20:20;97537.63;;;8.52;100.00
20156;BME280;10238;49.556;10.956;2024-03-25T09:23:07;97531.53;;;8.67;100.00
20156;BME280;10238;49.556;10.956;2024-03-25T09:25:53;97521.94;;;8.74;100.00
20156;BME280;10238;49.556;10.956;2024-03-25T09:28:39;97525.75;;;8.72;100.00
20156;BME280;10238;49.556;10.956;2024-03-25T09:31:25;97527.72;;;8.86;100.00
20156;BME280;10238;49.556;10.956;2024-03-25T09:34:11;97515.66;;;9.24;100.00
20156;BME280;10238;49.556;10.956;2024-03-25T09:36:57;97517.41;;;9.71;100.00
20156;BME280;10238;49.556;10.956;2024-03-25T09:39:44;97517.31;;;10.03;100.00
20156;BME280;10238;49.556;10.956;2024-03-25T09:42:36;97505.09;;;10.33;100.00
20156;BME280;10238;49.556;10.956;2024-03-25T09:45:30;97504.06;;;10.64;100.00
20156;BME280;10238;49.556;10.956;2024-03-25T09:48:16;97492.97;;;10.83;100.00
20156;BME280;10238;49.556;10.956;2024-03-25T09:51:04;97500.50;;;10.80;100.00
20156;BME280;10238;49.556;10.956;2024-03-25T09:53:51;97489.81;;;10.65;100.00
20156;BME280;10238;49.556;10.956;2024-03-25T09:56:40;97500.19;;;10.52;100.00
20156;BME280;10238;49.556;10.956;2024-03-25T09:59:27;97496.50;;;10.53;100.00
20156;BME280;10238;49.556;10.956;2024-03-25T10:02:14;97503.66;;;10.53;100.00
20156;BME280;10238;49.556;10.956;2024-03-25T10:05:01;97494.56;;;10.47;100.00
20156;BME280;10238;49.556;10.956;2024-03-25T10:07:47;97489.31;;;10.39;100.00
20156;BME280;10238;49.556;10.956;2024-03-25T10:10:34;97495.31;;;10.33;100.00
20156;BME280;10238;49.556;10.956;2024-03-25T10:13:21;97492.16;;;10.30;100.00
20156;BME280;10238;49.556;10.956;2024-03-25T10:16:07;97485.47;;;10.64;100.00
20156;BME280;10238;49.556;10.956;2024-03-25T10:18:53;97479.81;;;11.13;100.00
20156;BME280;10238;49.556;10.956;2024-03-25T10:21:39;97473.31;;;11.67;100.00
20156;BME280;10238;49.556;10.956;2024-03-25T10:24:25;97459.53;;;11.78;100.00
20156;BME280;10238;49.556;10.956;2024-03-25T10:27:17;97467.59;;;11.70;100.00
20156;BME280;10238;49.556;10.956;2024-03-25T10:30:07;97460.00;;;11.67;100.00
20156;BME280;10238;49.556;10.956;2024-03-25T10:33:00;97455.22;;;12.06;100.00
20156;BME280;10238;49.556;10.956;2024-03-25T10:35:47;97448.28;;;12.26;100.00
20156;BME280;10238;49.556;10.956;2024-03-25T10:38:35;97446.81;;;12.23;100.00
20156;BME280;10238;49.556;10.956;2024-03-25T10:41:23;97440.41;;;12.18;100.00
20156;BME280;10238;49.556;10.956;2024-03-25T10:44:09;97444.09;;;12.02;100.00
20156;BME280;10238;49.556;10.956;2024-03-25T10:47:01;97428.41;;;11.93;100.00
20156;BME280;10238;49.556;10.956;2024-03-25T10:49:50;97443.19;;;11.81;100.00
20156;BME280;10238;49.556;10.956;2024-03-25T10:52:39;97433.81;;;11.56;100.00
20156;BME280;10238;49.556;10.956;2024-03-25T10:55:26;97433.34;;;11.52;100.00
20156;BME280;10238;49.556;10.956;2024-03-25T10:58:12;97432.22;;;11.47;100.00
20156;BME280;10238;49.556;10.956;2024-03-25T11:01:00;97432.78;;;11.42;100.00
20156;BME280;10238;49.556;10.956;2024-03-25T11:03:48;97426.28;;;11.30;100.00
20156;BME280;10238;49.556;10.956;2024-03-25T11:06:35;97422.78;;;11.30;100.00
20156;BME280;10238;49.556;10.956;2024-03-25T11:09:24;97412.22;;;11.22;100.00
20156;BME280;10238;49.556;10.956;2024-03-25T11:12:12;97423.88;;;11.21;100.00
20156;BME280;10238;49.556;10.956;2024-03-25T11:14:58;97411.31;;;11.29;100.00
20156;BME280;10238;49.556;10.956;2024-03-25T11:17:49;97400.47;;;11.60;100.00
20156;BME280;10238;49.556;10.956;2024-03-25T11:20:36;97393.66;;;11.65;100.00
20156;BME280;10238;49.556;10.956;2024-03-25T11:23:23;97389.28;;;11.50;100.00
20156;BME280;10238;49.556;10.956;2024-03-25T11:26:19;97385.44;;;11.52;100.00
20156;BME280;10238;49.556;10.956;2024-03-25T11:29:05;97392.81;;;11.65;100.00
20156;BME280;10238;49.556;10.956;2024-03-25T11:31:53;97389.47;;;11.92;100.00
20156;BME280;10238;49.556;10.956;2024-03-25T11:34:38;97377.97;;;12.06;100.00
20156;BME280;10238;49.556;10.956;2024-03-25T11:37:40;97375.50;;;12.04;100.00
20156;BME280;10238;49.556;10.956;2024-03-25T11:40:26;97366.78;;;11.96;100.00
20156;BME280;10238;49.556;10.956;2024-03-25T11:43:18;97361.66;;;12.15;100.00
20156;BME280;10238;49.556;10.956;2024-03-25T11:46:05;97364.28;;;12.30;100.00
20156;BME280;10238;49.556;10.956;2024-03-25T11:48:51;97367.47;;;12.61;100.00
20156;BME280;10238;49.556;10.956;2024-03-25T11:51:36;97362.72;;;12.84;95.60
20156;BME280;10238;49.556;10.956;2024-03-25T11:54:27;97355.84;;;12.96;99.90
20156;BME280;10238;49.556;10.956;2024-03-25T11:57:13;97356.81;;;13.10;98.93
20156;BME280;10238;49.556;10.956;2024-03-25T11:59:59;97347.47;;;13.20;94.24
20156;BME280;10238;49.556;10.956;2024-03-25T12:02:45;97340.97;;;13.36;96.37
20156;BME280;10238;49.556;10.956;2024-03-25T12:05:31;97335.19;;;13.66;96.82
20156;BME280;10238;49.556;10.956;2024-03-25T12:08:17;97343.28;;;13.92;94.51
20156;BME280;10238;49.556;10.956;2024-03-25T12:11:04;97336.78;;;14.14;88.13
20156;BME280;10238;49.556;10.956;2024-03-25T12:14:05;97334.00;;;14.35;89.91
20156;BME280;10238;49.556;10.956;2024-03-25T12:16:51;97327.97;;;14.20;75.29
20156;BME280;10238;49.556;10.956;2024-03-25T12:19:36;97326.56;;;14.24;77.72
20156;BME280;10238;49.556;10.956;2024-03-25T12:22:22;97323.72;;;14.84;93.80
20156;BME280;10238;49.556;10.956;2024-03-25T12:25:10;97307.63;;;15.23;86.37
20156;BME280;10238;49.556;10.956;2024-03-25T12:27:57;97306.31;;;15.59;75.25
20156;BME280;10238;49.556;10.956;2024-03-25T12:30:50;97312.97;;;15.50;68.98
20156;BME280;10238;49.556;10.956;2024-03-25T12:33:40;97316.13;;;15.01;66.46
20156;BME280;10238;49.556;10.956;2024-03-25T12:36:26;97300.47;;;14.91;71.51
20156;BME280;10238;49.556;10.956;2024-03-25T12:39:16;97297.53;;;15.45;78.64
20156;BME280;10238;49.556;10.956;2024-03-25T12:42:04;97288.00;;;16.00;71.99
20156;BME280;10238;49.556;10.956;2024-03-25T12:44:52;97287.19;;;15.49;62.89
20156;BME280;10238;49.556;10.956;2024-03-25T12:47:38;97293.28;;;14.40;57.56
20156;BME280;10238;49.556;10.956;2024-03-25T12:50:23;97290.81;;;14.25;65.49
20156;BME280;10238;49.556;10.956;2024-03-25T12:53:16;97284.41;;;14.91;62.72
20156;BME280;10238;49.556;10.956;2024-03-25T12:56:03;97286.19;;;15.43;77.24
20156;BME280;10238;49.556;10.956;2024-03-25T12:58:48;97276.22;;;15.63;73.90
20156;BME280;10238;49.556;10.956;2024-03-25T13:01:35;97277.31;;;15.56;64.17
20156;BME280;10238;49.556;10.956;2024-03-25T13:04:22;97270.63;;;16.09;68.43
20156;BME280;10238;49.556;10.956;2024-03-25T13:07:08;97270.44;;;16.35;70.84
20156;BME280;10238;49.556;10.956;2024-03-25T13:09:54;97258.16;;;15.90;60.73
20156;BME280;10238;49.556;10.956;2024-03-25T13:12:39;97256.69;;;15.94;58.67
20156;BME280;10238;49.556;10.956;2024-03-25T13:15:25;97250.47;;;16.00;58.45
20156;BME280;10238;49.556;10.956;2024-03-25T13:18:12;97246.69;;;16.14;69.58
20156;BME280;10238;49.556;10.956;2024-03-25T13:20:58;97246.75;;;16.32;75.94
20156;BME280;10238;49.556;10.956;2024-03-25T13:23:44;97239.06;;;16.42;77.19
20156;BME280;10238;49.556;10.956;2024-03-25T13:26:30;97235.88;;;15.96;62.71
20156;BME280;10238;49.556;10.956;2024-03-25T13:29:16;97230.06;;;16.30;79.15
20156;BME280;10238;49.556;10.956;2024-03-25T13:32:01;97220.16;;;17.22;76.02
20156;BME280;10238;49.556;10.956;2024-03-25T13:34:48;97212.59;;;17.67;68.12
20156;BME280;10238;49.556;10.956;2024-03-25T13:37:34;97205.91;;;17.87;64.51
20156;BME280;10238;49.556;10.956;2024-03-25T13:40:20;97203.63;;;18.02;68.38
20156;BME280;10238;49.556;10.956;2024-03-25T13:43:06;97199.34;;;18.24;67.99
20156;BME280;10238;49.556;10.956;2024-03-25T13:45:52;97207.06;;;18.32;61.89
20156;BME280;10238;49.556;10.956;2024-03-25T13:48:38;97199.34;;;17.83;57.23
20156;BME280;10238;49.556;10.956;2024-03-25T13:51:25;97192.91;;;17.55;61.39
20156;BME280;10238;49.556;10.956;2024-03-25T13:54:10;97187.41;;;17.79;61.55
20156;BME280;10238;49.556;10.956;2024-03-25T13:56:56;97183.06;;;17.78;60.27
20156;BME280;10238;49.556;10.956;2024-03-25T13:59:42;97176.78;;;17.84;55.99
20156;BME280;10238;49.556;10.956;2024-03-25T14:02:27;97175.25;;;17.47;55.07
20156;BME280;10238;49.556;10.956;2024-03-25T14:05:13;97169.53;;;17.37;55.14
20156;BME280;10238;49.556;10.956;2024-03-25T14:08:00;97166.25;;;17.53;56.34
20156;BME280;10238;49.556;10.956;2024-03-25T14:10:57;97164.56;;;18.00;59.75
20156;BME280;10238;49.556;10.956;2024-03-25T14:13:43;97158.66;;;17.91;58.04
20156;BME280;10238;49.556;10.956;2024-03-25T14:16:28;97149.25;;;17.41;51.57
20156;BME280;10238;49.556;10.956;2024-03-25T14:19:14;97147.28;;;17.66;57.39
20156;BME280;10238;49.556;10.956;2024-03-25T14:21:59;97145.09;;;17.75;51.81
20156;BME280;10238;49.556;10.956;2024-03-25T14:24:46;97140.38;;;17.22;49.19
20156;BME280;10238;49.556;10.956;2024-03-25T14:27:32;97142.19;;;17.10;56.01
20156;BME280;10238;49.556;10.956;2024-03-25T14:30:18;97130.34;;;17.77;67.36